createdAt,value
2022-10-17T00:00:53.007Z,2.87
2022-10-17T00:03:19.435Z,2.88
2022-10-17T00:05:47.724Z,2.70
2022-10-17T00:08:16.454Z,2.90
2022-10-17T00:10:42.964Z,3.10
2022-10-17T00:13:09.932Z,3.30
2022-10-17T00:15:36.368Z,3.60
2022-10-17T00:18:02.964Z,3.33
2022-10-17T00:20:30.396Z,3.50
2022-10-17T00:22:57.372Z,3.10
2022-10-17T00:25:23.875Z,3.63
2022-10-17T00:27:50.260Z,2.72
2022-10-17T00:30:17.119Z,3.90
2022-10-17T00:32:43.620Z,4.18
2022-10-17T00:35:10.314Z,3.40
2022-10-17T00:37:36.983Z,3.53
2022-10-17T00:40:05.530Z,3.67
2022-10-17T00:42:31.929Z,3.63
2022-10-17T00:45:21.698Z,3.40
2022-10-17T00:48:01.024Z,3.75
2022-10-17T00:50:28.193Z,3.37
2022-10-17T00:52:59.175Z,3.70
2022-10-17T00:55:30.904Z,3.30
2022-10-17T00:58:00.888Z,3.47
2022-10-17T01:00:27.355Z,4.00
2022-10-17T01:02:53.864Z,4.00
2022-10-17T01:05:20.781Z,3.92
2022-10-17T01:07:49.441Z,3.92
2022-10-17T01:10:16.080Z,3.78
2022-10-17T01:12:49.166Z,3.55
2022-10-17T01:15:32.080Z,3.30
2022-10-17T01:18:40.188Z,3.80
2022-10-17T01:21:27.859Z,3.78
2022-10-17T01:24:35.766Z,3.22
2022-10-17T01:27:42.243Z,3.45
2022-10-17T01:30:26.990Z,3.90
2022-10-17T01:33:07.375Z,3.55
2022-10-17T01:35:46.977Z,3.15
2022-10-17T01:38:27.224Z,4.00
2022-10-17T01:41:10.445Z,3.67
2022-10-17T01:43:46.489Z,3.40
2022-10-17T01:46:36.160Z,3.42
2022-10-17T01:49:05.711Z,3.67
2022-10-17T01:51:49.159Z,3.42
2022-10-17T01:54:27.416Z,3.47
2022-10-17T01:56:58.624Z,4.00
2022-10-17T01:59:44.214Z,3.83
2022-10-17T02:02:14.287Z,3.55
2022-10-17T02:04:41.851Z,3.88
2022-10-17T02:07:10.322Z,4.78
2022-10-17T02:09:36.799Z,4.00
2022-10-17T02:12:31.162Z,4.68
2022-10-17T02:15:29.756Z,4.05
2022-10-17T02:18:29.756Z,3.92
2022-10-17T02:21:03.656Z,4.22
2022-10-17T02:23:50.690Z,4.53
2022-10-17T02:26:33.024Z,4.47
2022-10-17T02:29:15.516Z,3.92
2022-10-17T02:31:46.880Z,4.82
2022-10-17T02:34:19.711Z,4.65
2022-10-17T02:36:51.570Z,5.40
2022-10-17T02:39:20.816Z,5.45
2022-10-17T02:41:49.260Z,4.53
2022-10-17T02:44:16.843Z,5.13
2022-10-17T02:46:49.380Z,4.18
2022-10-17T02:49:21.272Z,5.10
2022-10-17T02:51:56.795Z,5.10
2022-10-17T02:54:34.397Z,4.50
2022-10-17T02:57:26.217Z,4.78
2022-10-17T02:59:53.458Z,4.68
2022-10-17T03:02:19.886Z,4.77
2022-10-17T03:04:46.896Z,4.53
2022-10-17T03:07:13.453Z,4.70
2022-10-17T03:09:39.930Z,5.47
2022-10-17T03:12:06.409Z,5.60
2022-10-17T03:14:32.766Z,4.97
2022-10-17T03:16:59.241Z,5.00
2022-10-17T03:19:25.784Z,4.72
2022-10-17T03:21:52.232Z,5.40
2022-10-17T03:24:18.629Z,4.85
2022-10-17T03:29:11.422Z,4.75
2022-10-17T03:31:37.830Z,4.40
2022-10-17T03:34:04.345Z,4.25
2022-10-17T03:36:30.804Z,5.13
2022-10-17T03:38:57.217Z,4.97
2022-10-17T03:41:23.843Z,4.50
2022-10-17T03:43:52.905Z,3.90
2022-10-17T03:46:19.346Z,4.63
2022-10-17T03:48:45.825Z,4.70
2022-10-17T03:51:12.229Z,4.70
2022-10-17T03:53:38.702Z,5.63
2022-10-17T03:56:24.192Z,5.15
2022-10-17T03:58:50.988Z,4.53
2022-10-17T04:01:19.329Z,4.40
2022-10-17T04:03:52.159Z,4.40
2022-10-17T04:06:19.003Z,4.80
2022-10-17T04:08:45.495Z,4.45
2022-10-17T04:11:16.183Z,4.75
2022-10-17T04:13:43.471Z,4.65
2022-10-17T04:16:17.669Z,4.57
2022-10-17T04:18:44.711Z,4.72
2022-10-17T04:21:12.445Z,4.72
2022-10-17T04:23:39.791Z,4.47
2022-10-17T04:26:07.172Z,4.55
2022-10-17T04:28:34.322Z,4.83
2022-10-17T04:31:10.035Z,4.22
2022-10-17T04:33:36.494Z,4.53
2022-10-17T04:36:06.514Z,4.13
2022-10-17T04:38:33.713Z,4.80
2022-10-17T04:41:06.039Z,4.60
2022-10-17T04:43:34.354Z,5.60
2022-10-17T04:46:02.118Z,5.40
2022-10-17T04:48:29.663Z,5.15
2022-10-17T04:50:57.985Z,4.75
2022-10-17T04:53:24.878Z,4.93
2022-10-17T04:55:51.475Z,5.90
2022-10-17T04:58:18.831Z,5.22
2022-10-17T05:00:45.940Z,5.28
2022-10-17T05:03:12.629Z,4.80
2022-10-17T05:05:39.844Z,5.03
2022-10-17T05:08:07.826Z,4.68
2022-10-17T05:10:42.895Z,4.93
2022-10-17T05:13:10.197Z,4.75
2022-10-17T05:15:37.851Z,4.80
2022-10-17T05:18:05.894Z,4.87
2022-10-17T05:20:33.160Z,5.22
2022-10-17T05:23:00.361Z,4.97
2022-10-17T05:25:26.839Z,4.80
2022-10-17T05:27:53.905Z,4.95
2022-10-17T05:30:20.473Z,4.30
2022-10-17T05:32:47.006Z,4.78
2022-10-17T05:35:13.497Z,4.05
2022-10-17T05:37:39.965Z,4.50
2022-10-17T05:40:07.999Z,4.97
2022-10-17T05:42:34.437Z,4.13
2022-10-17T05:45:00.963Z,4.55
2022-10-17T05:47:27.742Z,4.22
2022-10-17T05:49:54.764Z,4.07
2022-10-17T05:52:21.165Z,4.50
2022-10-17T05:54:47.609Z,4.57
2022-10-17T05:57:14.022Z,4.35
2022-10-17T05:59:40.589Z,3.60
2022-10-17T06:02:07.026Z,4.40
2022-10-17T06:04:33.723Z,4.07
2022-10-17T06:07:00.202Z,4.30
2022-10-17T06:09:26.620Z,4.55
2022-10-17T06:11:53.127Z,4.35
2022-10-17T06:14:19.671Z,4.03
2022-10-17T06:16:46.085Z,4.57
2022-10-17T06:19:12.715Z,4.20
2022-10-17T06:21:39.086Z,4.68
2022-10-17T06:24:05.619Z,4.63
2022-10-17T06:26:32.058Z,4.20
2022-10-17T06:28:58.562Z,5.03
2022-10-17T06:31:25.207Z,4.57
2022-10-17T06:33:51.637Z,4.00
2022-10-17T06:36:18.177Z,4.45
2022-10-17T06:38:44.599Z,4.60
2022-10-17T06:41:16.328Z,4.35
2022-10-17T06:43:46.311Z,4.80
2022-10-17T06:46:18.091Z,4.43
2022-10-17T06:48:45.187Z,4.60
2022-10-17T06:51:12.360Z,4.32
2022-10-17T06:53:40.051Z,4.65
2022-10-17T06:56:08.305Z,3.87
2022-10-17T06:58:41.192Z,4.53
2022-10-17T07:01:13.202Z,4.13
2022-10-17T07:03:40.884Z,4.72
2022-10-17T07:06:08.051Z,4.47
2022-10-17T07:08:34.469Z,3.57
2022-10-17T07:11:13.270Z,4.38
2022-10-17T07:13:39.632Z,4.22
2022-10-17T07:16:06.732Z,4.15
2022-10-17T07:18:33.256Z,3.53
2022-10-17T07:20:59.730Z,4.03
2022-10-17T07:23:26.493Z,4.35
2022-10-17T07:25:53.606Z,4.03
2022-10-17T07:28:20.008Z,3.83
2022-10-17T07:30:50.627Z,4.03
2022-10-17T07:33:20.167Z,4.17
2022-10-17T07:35:46.619Z,4.20
2022-10-17T07:38:12.957Z,4.05
2022-10-17T07:40:39.407Z,3.97
2022-10-17T07:43:05.820Z,3.88
2022-10-17T07:45:32.263Z,4.10
2022-10-17T07:47:58.808Z,4.15
2022-10-17T07:50:26.088Z,3.70
2022-10-17T07:52:52.631Z,4.20
2022-10-17T07:55:19.177Z,4.07
2022-10-17T07:57:45.730Z,4.60
2022-10-17T08:00:12.741Z,4.50
2022-10-17T08:02:39.549Z,4.80
2022-10-17T08:05:06.457Z,4.53
2022-10-17T08:07:32.940Z,4.50
2022-10-17T08:09:59.592Z,5.40
2022-10-17T08:12:26.346Z,4.75
2022-10-17T08:14:52.760Z,4.50
2022-10-17T08:17:19.307Z,4.72
2022-10-17T08:19:45.812Z,4.60
2022-10-17T08:22:12.448Z,4.63
2022-10-17T08:24:38.990Z,4.13
2022-10-17T08:27:11.212Z,5.35
2022-10-17T08:29:38.664Z,4.20
2022-10-17T08:32:08.969Z,3.75
2022-10-17T08:34:36.499Z,3.97
2022-10-17T08:37:03.214Z,3.63
2022-10-17T08:39:29.794Z,4.22
2022-10-17T08:42:06.523Z,4.15
2022-10-17T08:44:43.686Z,3.55
2022-10-17T08:47:19.201Z,4.20
2022-10-17T08:49:52.410Z,3.88
2022-10-17T08:52:47.250Z,4.18
2022-10-17T08:55:37.862Z,3.95
2022-10-17T08:58:20.965Z,4.03
2022-10-17T09:01:13.071Z,3.63
2022-10-17T09:04:09.382Z,3.95
2022-10-17T09:06:42.378Z,4.10
2022-10-17T09:09:39.723Z,3.38
2022-10-17T09:12:22.121Z,3.75
2022-10-17T09:14:51.267Z,3.87
2022-10-17T09:17:39.036Z,3.83
2022-10-17T09:20:20.551Z,3.58
2022-10-17T09:23:13.170Z,4.13
2022-10-17T09:25:44.461Z,3.33
2022-10-17T09:28:13.843Z,4.00
2022-10-17T09:30:45.819Z,3.80
2022-10-17T09:33:53.396Z,4.60
2022-10-17T09:36:30.120Z,4.15
2022-10-17T09:38:59.690Z,4.35
2022-10-17T09:41:46.920Z,3.90
2022-10-17T09:44:32.666Z,4.05
2022-10-17T09:47:24.361Z,4.30
2022-10-17T09:49:51.334Z,4.13
2022-10-17T09:52:25.400Z,4.10
2022-10-17T09:54:55.650Z,4.17
2022-10-17T09:57:22.157Z,3.78
2022-10-17T10:00:00.471Z,3.70
2022-10-17T10:02:29.444Z,3.63
2022-10-17T10:05:06.367Z,4.40
2022-10-17T10:07:36.413Z,4.10
2022-10-17T10:10:06.435Z,4.20
2022-10-17T10:12:36.436Z,4.50
2022-10-17T10:15:38.690Z,3.78
2022-10-17T10:18:25.051Z,4.15
2022-10-17T10:21:07.137Z,4.13
2022-10-17T10:23:34.431Z,3.45
2022-10-17T10:26:16.779Z,3.65
2022-10-17T10:28:54.927Z,4.10
2022-10-17T10:31:37.385Z,3.92
2022-10-17T10:34:20.724Z,3.97
2022-10-17T10:37:07.615Z,3.90
2022-10-17T10:39:43.054Z,3.58
2022-10-17T10:42:21.587Z,4.53
2022-10-17T10:44:49.419Z,4.97
2022-10-17T10:47:26.218Z,4.40
2022-10-17T10:50:07.971Z,3.92
2022-10-17T10:52:50.273Z,3.95
2022-10-17T10:55:26.093Z,3.50
2022-10-17T10:57:58.741Z,3.53
2022-10-17T11:00:27.899Z,4.03
2022-10-17T11:03:19.482Z,2.88
2022-10-17T11:06:18.961Z,3.10
2022-10-17T11:09:13.277Z,3.03
2022-10-17T11:11:48.170Z,3.08
2022-10-17T11:14:23.567Z,3.17
2022-10-17T11:17:02.171Z,2.92
2022-10-17T11:19:32.295Z,3.67
2022-10-17T11:22:10.851Z,3.10
2022-10-17T11:24:43.248Z,2.80
2022-10-17T11:27:09.848Z,2.60
2022-10-17T11:29:40.272Z,2.60
2022-10-17T11:32:22.887Z,2.72
2022-10-17T11:34:53.471Z,3.63
2022-10-17T11:37:32.913Z,2.88
2022-10-17T11:40:14.661Z,3.13
2022-10-17T11:42:56.881Z,3.08
2022-10-17T11:45:27.048Z,2.78
2022-10-17T11:48:01.670Z,3.55
2022-10-17T11:53:24.700Z,3.70
2022-10-17T11:55:54.197Z,3.00
2022-10-17T11:58:39.472Z,3.33
2022-10-17T12:01:25.565Z,3.00
2022-10-17T12:03:59.331Z,3.72
2022-10-17T12:07:05.567Z,2.60
2022-10-17T12:09:47.798Z,3.42
2022-10-17T12:12:32.499Z,3.38
2022-10-17T12:15:26.076Z,3.25
2022-10-17T12:18:03.406Z,2.63
2022-10-17T12:20:37.207Z,3.00
2022-10-17T12:23:19.257Z,2.70
2022-10-17T12:25:56.985Z,3.13
2022-10-17T12:28:30.800Z,3.30
2022-10-17T12:31:17.226Z,3.22
2022-10-17T12:33:46.510Z,3.33
2022-10-17T12:36:20.960Z,3.50
2022-10-17T12:39:13.539Z,3.92
2022-10-17T12:41:40.165Z,3.83
2022-10-17T12:44:12.869Z,3.78
2022-10-17T12:46:49.466Z,3.90
2022-10-17T12:49:25.935Z,3.53
2022-10-17T12:52:11.003Z,3.28
2022-10-17T12:54:48.087Z,2.97
2022-10-17T12:57:44.875Z,3.55
2022-10-17T13:00:22.061Z,4.10
2022-10-17T13:02:52.182Z,3.40
2022-10-17T13:05:28.453Z,3.63
2022-10-17T13:07:56.385Z,3.42
2022-10-17T13:10:32.455Z,3.40
2022-10-17T13:13:11.016Z,4.03
2022-10-17T13:15:37.419Z,3.28
2022-10-17T13:18:04.107Z,3.55
2022-10-17T13:20:32.349Z,3.78
2022-10-17T13:22:59.241Z,3.47
2022-10-17T13:25:27.248Z,3.90
2022-10-17T13:28:06.357Z,4.07
2022-10-17T13:30:35.306Z,4.65
2022-10-17T13:33:02.969Z,3.05
2022-10-17T13:38:28.267Z,4.73
2022-10-17T13:41:01.670Z,3.78
2022-10-17T13:43:29.390Z,3.63
2022-10-17T13:46:19.231Z,3.97
2022-10-17T13:48:50.525Z,3.83
2022-10-17T13:51:17.038Z,3.57
2022-10-17T13:53:44.430Z,3.30
2022-10-17T13:56:27.725Z,3.63
2022-10-17T13:59:08.145Z,3.40
2022-10-17T14:01:34.840Z,3.83
2022-10-17T14:04:08.827Z,3.10
2022-10-17T14:06:48.003Z,3.53
2022-10-17T14:09:22.435Z,2.92
2022-10-17T14:12:02.618Z,3.35
2022-10-17T14:14:30.451Z,3.35
2022-10-17T14:17:13.382Z,3.67
2022-10-17T14:19:40.026Z,3.50
2022-10-17T14:22:22.050Z,4.05
2022-10-17T14:24:53.326Z,3.08
2022-10-17T14:27:48.499Z,3.58
2022-10-17T14:30:51.805Z,3.10
2022-10-17T14:33:22.214Z,3.30
2022-10-17T14:35:54.066Z,2.97
2022-10-17T14:38:21.624Z,2.85
2022-10-17T14:41:43.810Z,3.90
2022-10-17T14:44:07.125Z,2.80
2022-10-17T14:46:37.650Z,3.20
2022-10-17T14:49:28.598Z,2.80
2022-10-17T14:52:18.540Z,2.97
2022-10-17T14:54:49.367Z,3.78
2022-10-17T14:57:17.565Z,3.33
2022-10-17T14:59:59.390Z,3.10
2022-10-17T15:02:27.893Z,2.90
2022-10-17T15:04:54.888Z,2.92
2022-10-17T15:07:22.191Z,3.17
2022-10-17T15:09:50.633Z,2.97
2022-10-17T15:12:19.728Z,3.40
2022-10-17T15:14:48.400Z,3.15
2022-10-17T15:17:20.498Z,3.22
2022-10-17T15:19:47.782Z,3.15
2022-10-17T15:22:16.005Z,3.20
2022-10-17T15:24:42.929Z,3.83
2022-10-17T15:27:19.927Z,2.95
2022-10-17T15:29:46.936Z,3.22
2022-10-17T15:32:14.121Z,3.00
2022-10-17T15:34:40.901Z,3.20
2022-10-17T15:37:16.252Z,3.00
2022-10-17T15:39:42.733Z,4.20
2022-10-17T15:42:11.879Z,3.55
2022-10-17T15:44:38.349Z,3.58
2022-10-17T15:47:05.237Z,2.93
2022-10-17T15:49:31.615Z,3.22
2022-10-17T15:51:58.068Z,3.03
2022-10-17T15:54:24.417Z,2.80
2022-10-17T15:56:54.808Z,3.10
2022-10-17T15:59:25.729Z,3.67
2022-10-17T16:01:52.214Z,2.67
2022-10-17T17:09:16.047Z,3.40
2022-10-17T17:15:27.798Z,3.77
2022-10-17T17:21:58.691Z,4.13
2022-10-17T17:28:17.144Z,3.85
2022-10-17T17:31:01.281Z,3.90
2022-10-17T17:33:29.869Z,4.13
2022-10-17T19:09:35.280Z,7.33
2022-10-17T19:12:01.982Z,6.45
2022-10-17T19:14:28.660Z,6.63
2022-10-17T19:16:55.090Z,7.05
2022-10-17T19:19:24.261Z,6.87
2022-10-17T19:21:51.696Z,7.22
2022-10-17T19:24:21.327Z,6.70
2022-10-17T19:26:50.328Z,7.20
2022-10-17T19:29:18.126Z,6.35
2022-10-17T19:31:45.178Z,6.60
2022-10-17T19:34:12.483Z,6.32
2022-10-17T19:36:39.177Z,5.93
2022-10-17T19:39:08.555Z,6.90
2022-10-17T19:41:36.330Z,6.60
2022-10-17T19:44:03.236Z,6.88
2022-10-17T19:46:30.707Z,7.07
2022-10-17T19:48:58.077Z,8.07
2022-10-17T19:51:25.072Z,9.77
2022-10-17T19:53:52.850Z,9.32
2022-10-17T19:56:21.129Z,8.35
2022-10-17T19:58:48.659Z,7.70
2022-10-17T20:01:17.723Z,8.13
2022-10-17T20:03:44.441Z,7.82
2022-10-17T20:06:11.357Z,8.48
2022-10-17T20:08:38.692Z,8.02
2022-10-17T20:11:07.072Z,7.68
2022-10-17T20:13:35.336Z,7.77
2022-10-17T20:16:02.463Z,7.07
2022-10-17T20:18:29.003Z,8.27
2022-10-17T20:20:55.536Z,7.32
2022-10-17T20:23:22.477Z,8.20
2022-10-17T20:26:06.809Z,8.30
2022-10-17T20:28:45.887Z,7.85
2022-10-17T20:31:13.366Z,9.95
2022-10-17T20:33:41.439Z,11.93
2022-10-17T20:36:10.160Z,9.73
2022-10-17T20:38:36.823Z,10.70
2022-10-17T20:41:09.556Z,9.43
2022-10-17T20:43:37.216Z,10.35
2022-10-17T20:46:22.030Z,8.13
2022-10-17T20:48:54.460Z,8.63
2022-10-17T20:51:21.376Z,10.93
2022-10-17T20:53:48.819Z,13.48
2022-10-17T20:56:28.957Z,10.35
2022-10-17T20:59:13.126Z,9.45
2022-10-17T21:01:39.643Z,8.68
2022-10-17T21:04:33.261Z,9.40
2022-10-17T21:06:53.660Z,9.43
2022-10-17T21:09:20.703Z,9.75
2022-10-17T21:11:48.299Z,8.50
2022-10-17T21:14:16.654Z,8.25
2022-10-17T21:16:43.316Z,9.00
2022-10-17T21:19:24.793Z,8.63
2022-10-17T21:21:51.352Z,9.25
2022-10-17T21:24:21.269Z,9.80
2022-10-17T21:26:55.427Z,9.75
2022-10-17T21:29:22.853Z,8.73
2022-10-17T21:31:49.555Z,9.25
2022-10-17T21:34:19.976Z,8.32
2022-10-17T21:36:46.750Z,9.70
2022-10-17T21:39:14.381Z,9.10
2022-10-17T21:41:41.635Z,8.10
2022-10-17T21:44:13.636Z,8.10
2022-10-17T21:46:40.578Z,8.43
2022-10-17T21:49:07.289Z,8.37
2022-10-17T21:51:33.673Z,9.27
2022-10-17T21:54:00.329Z,8.05
2022-10-17T21:56:30.476Z,8.10
2022-10-17T21:58:58.288Z,7.93
2022-10-17T22:01:27.691Z,7.33
2022-10-17T22:03:56.860Z,7.93
2022-10-17T22:06:39.764Z,7.43
2022-10-17T22:09:14.404Z,8.35
2022-10-17T22:11:41.361Z,7.15
2022-10-17T22:14:12.418Z,7.77
2022-10-17T22:16:39.407Z,8.95
2022-10-17T22:19:07.920Z,7.90
2022-10-17T22:21:36.170Z,7.50
2022-10-17T22:24:05.891Z,8.90
2022-10-17T22:26:34.678Z,7.73
2022-10-17T22:29:01.692Z,7.75
2022-10-17T22:31:28.100Z,8.82
2022-10-17T22:33:54.540Z,7.28
2022-10-17T22:36:21.158Z,7.50
2022-10-17T22:38:48.391Z,6.83
2022-10-17T22:41:14.754Z,6.50
2022-10-17T22:43:48.238Z,6.00
2022-10-17T22:46:18.531Z,6.40
2022-10-17T22:48:44.947Z,5.95
2022-10-17T22:51:12.294Z,5.80
2022-10-17T22:53:38.761Z,5.85
2022-10-17T22:56:07.968Z,6.43
2022-10-17T22:58:35.592Z,5.60
2022-10-17T23:01:02.973Z,6.00
2022-10-17T23:03:31.611Z,5.90
2022-10-17T23:05:58.713Z,5.70
2022-10-17T23:08:25.984Z,5.95
2022-10-17T23:10:52.895Z,6.10
2022-10-17T23:13:21.239Z,5.78
2022-10-17T23:15:52.552Z,6.13
2022-10-17T23:18:19.974Z,5.82
2022-10-17T23:20:46.475Z,5.75
2022-10-17T23:23:13.336Z,7.88
2022-10-17T23:25:39.919Z,6.97
2022-10-17T23:28:08.106Z,6.23
2022-10-17T23:30:35.323Z,6.10
2022-10-17T23:33:02.195Z,5.95
2022-10-17T23:35:28.832Z,5.95
2022-10-17T23:37:55.383Z,5.80
2022-10-17T23:40:21.884Z,6.73
2022-10-17T23:42:48.291Z,6.90
2022-10-17T23:45:14.765Z,7.90
2022-10-17T23:47:41.928Z,7.43
2022-10-17T23:50:08.434Z,7.60
2022-10-17T23:52:34.847Z,6.30
2022-10-17T23:55:01.232Z,7.18
2022-10-17T23:57:27.856Z,6.32
2022-10-17T23:59:55.327Z,7.45
